createdAt,value
2022-11-07T00:01:39.543Z,90.02
2022-11-07T00:04:06.159Z,89.92
2022-11-07T00:06:32.750Z,90.16
2022-11-07T00:08:59.319Z,90.34
2022-11-07T00:11:28.102Z,90.53
2022-11-07T00:13:57.185Z,90.86
2022-11-07T00:16:23.972Z,90.68
2022-11-07T00:18:50.531Z,90.57
2022-11-07T00:21:19.427Z,90.71
2022-11-07T00:23:45.982Z,90.57
2022-11-07T00:26:17.256Z,90.53
2022-11-07T00:28:44.405Z,90.46
2022-11-07T00:31:13.272Z,90.78
2022-11-07T00:33:45.804Z,90.60
2022-11-07T00:36:22.910Z,90.53
2022-11-07T00:38:49.466Z,90.81
2022-11-07T00:41:19.959Z,91.08
2022-11-07T00:43:46.714Z,90.74
2022-11-07T00:46:15.237Z,91.06
2022-11-07T00:48:42.233Z,91.08
2022-11-07T00:51:13.575Z,91.10
2022-11-07T00:53:40.308Z,91.03
2022-11-07T00:56:12.388Z,91.54
2022-11-07T00:58:42.712Z,91.43
2022-11-07T01:01:20.658Z,91.42
2022-11-07T01:04:06.255Z,91.28
2022-11-07T01:06:34.910Z,91.45
2022-11-07T01:09:01.753Z,91.59
2022-11-07T01:11:29.454Z,91.41
2022-11-07T01:14:01.125Z,91.66
2022-11-07T01:16:30.061Z,92.05
2022-11-07T01:18:57.470Z,91.98
2022-11-07T01:21:24.116Z,92.01
2022-11-07T01:23:50.738Z,92.17
2022-11-07T01:26:18.160Z,91.84
2022-11-07T01:28:45.954Z,92.34
2022-11-07T01:31:16.228Z,92.14
2022-11-07T01:33:43.899Z,92.08
2022-11-07T01:36:15.670Z,91.61
2022-11-07T01:38:45.568Z,91.85
2022-11-07T01:41:24.671Z,91.91
2022-11-07T01:44:02.027Z,92.15
2022-11-07T01:46:40.302Z,92.17
2022-11-07T01:49:22.292Z,92.10
2022-11-07T01:51:55.705Z,91.88
2022-11-07T01:54:26.880Z,92.19
2022-11-07T01:56:57.115Z,91.93
2022-11-07T01:59:28.626Z,92.38
2022-11-07T02:01:55.754Z,92.31
2022-11-07T02:04:25.988Z,92.28
2022-11-07T02:06:59.893Z,92.54
2022-11-07T02:09:31.394Z,92.43
2022-11-07T02:12:01.100Z,92.06
2022-11-07T02:14:29.268Z,92.42
2022-11-07T02:16:56.256Z,92.63
2022-11-07T02:19:41.518Z,92.11
2022-11-07T02:22:32.918Z,91.85
2022-11-07T02:25:03.178Z,91.90
2022-11-07T02:27:35.110Z,91.76
2022-11-07T02:30:12.171Z,92.20
2022-11-07T02:32:38.953Z,92.30
2022-11-07T02:35:27.433Z,92.58
2022-11-07T02:37:55.103Z,92.48
2022-11-07T02:40:22.143Z,92.33
2022-11-07T02:42:49.012Z,92.08
2022-11-07T02:45:15.576Z,92.13
2022-11-07T02:47:45.303Z,92.38
2022-11-07T02:50:14.650Z,92.62
2022-11-07T02:52:41.503Z,92.43
2022-11-07T02:55:09.241Z,92.73
2022-11-07T02:57:38.547Z,92.26
2022-11-07T03:00:07.222Z,92.53
2022-11-07T03:02:33.879Z,92.13
2022-11-07T03:05:03.388Z,92.46
2022-11-07T03:07:32.264Z,92.84
2022-11-07T03:09:58.820Z,92.53
2022-11-07T03:12:25.376Z,92.48
2022-11-07T03:14:52.056Z,92.79
2022-11-07T03:17:18.614Z,92.67
2022-11-07T03:19:45.151Z,92.71
2022-11-07T03:22:14.096Z,92.71
2022-11-07T03:24:40.607Z,92.61
2022-11-07T03:27:07.114Z,92.79
2022-11-07T03:29:33.606Z,92.72
2022-11-07T03:32:00.172Z,93.12
2022-11-07T03:34:26.680Z,92.89
2022-11-07T03:36:53.151Z,92.79
2022-11-07T03:39:25.477Z,93.00
2022-11-07T03:41:54.659Z,92.55
2022-11-07T03:44:21.276Z,92.79
2022-11-07T03:46:47.846Z,92.67
2022-11-07T03:49:14.445Z,92.79
2022-11-07T03:51:40.989Z,92.55
2022-11-07T03:54:10.427Z,92.96
2022-11-07T03:56:36.968Z,92.51
2022-11-07T03:59:03.558Z,92.88
2022-11-07T04:01:30.250Z,92.81
2022-11-07T04:03:56.905Z,92.61
2022-11-07T04:06:23.629Z,92.60
2022-11-07T04:08:50.189Z,92.24
2022-11-07T04:11:37.826Z,92.46
2022-11-07T04:14:25.270Z,92.20
2022-11-07T04:17:10.518Z,92.27
2022-11-07T04:19:37.043Z,92.33
2022-11-07T04:22:03.550Z,92.57
2022-11-07T04:24:30.061Z,92.38
2022-11-07T04:27:14.947Z,92.51
2022-11-07T04:29:41.540Z,92.70
2022-11-07T04:32:08.066Z,92.36
2022-11-07T04:34:37.827Z,92.49
2022-11-07T04:37:04.570Z,92.76
2022-11-07T04:39:33.348Z,92.72
2022-11-07T04:41:59.892Z,92.86
2022-11-07T04:44:28.801Z,92.73
2022-11-07T04:46:55.287Z,93.20
2022-11-07T04:49:21.827Z,93.14
2022-11-07T04:51:49.117Z,92.79
2022-11-07T04:54:15.928Z,92.84
2022-11-07T04:56:47.448Z,93.03
2022-11-07T04:59:14.005Z,93.01
2022-11-07T05:01:40.604Z,93.01
2022-11-07T05:04:07.147Z,93.11
2022-11-07T05:06:38.744Z,93.01
2022-11-07T05:09:05.359Z,92.51
2022-11-07T05:11:31.872Z,92.75
2022-11-07T05:14:00.630Z,92.56
2022-11-07T05:16:28.822Z,92.43
2022-11-07T05:18:55.381Z,92.36
2022-11-07T05:21:24.435Z,92.60
2022-11-07T05:23:50.936Z,92.19
2022-11-07T05:26:19.846Z,92.14
2022-11-07T05:28:48.966Z,91.87
2022-11-07T05:31:17.690Z,92.08
2022-11-07T05:33:44.774Z,92.03
2022-11-07T05:36:22.693Z,92.03
2022-11-07T05:38:51.870Z,91.96
2022-11-07T05:41:19.657Z,91.75
2022-11-07T05:43:46.887Z,91.98
2022-11-07T05:46:14.206Z,91.87
2022-11-07T05:48:42.989Z,92.05
2022-11-07T05:51:09.685Z,92.13
2022-11-07T05:53:36.562Z,92.07
2022-11-07T05:56:03.541Z,91.82
2022-11-07T05:58:32.694Z,92.00
2022-11-07T06:01:04.394Z,91.92
2022-11-07T06:03:31.985Z,92.11
2022-11-07T06:05:58.808Z,92.21
2022-11-07T06:08:25.537Z,92.39
2022-11-07T06:10:52.168Z,92.63
2022-11-07T06:13:19.039Z,92.65
2022-11-07T06:15:46.782Z,92.81
2022-11-07T06:18:21.184Z,92.93
2022-11-07T06:20:47.785Z,92.64
2022-11-07T06:23:14.749Z,92.74
2022-11-07T06:25:44.168Z,92.49
2022-11-07T06:28:12.890Z,92.37
2022-11-07T06:30:40.301Z,92.18
2022-11-07T06:33:10.789Z,92.14
2022-11-07T06:35:37.613Z,91.91
2022-11-07T06:38:06.046Z,91.90
2022-11-07T06:40:32.876Z,91.79
2022-11-07T06:43:11.057Z,91.80
2022-11-07T06:45:38.585Z,91.61
2022-11-07T06:48:05.749Z,91.59
2022-11-07T06:50:32.608Z,91.64
2022-11-07T06:53:07.951Z,91.57
2022-11-07T06:55:35.948Z,91.90
2022-11-07T06:58:03.934Z,91.76
2022-11-07T07:00:32.977Z,91.56
2022-11-07T07:02:59.713Z,91.54
2022-11-07T07:05:27.043Z,91.58
2022-11-07T07:07:55.421Z,91.36
2022-11-07T07:10:22.863Z,91.59
2022-11-07T07:12:49.426Z,91.38
2022-11-07T07:15:16.070Z,91.37
2022-11-07T07:17:45.076Z,91.34
2022-11-07T07:20:12.063Z,91.14
2022-11-07T07:22:38.656Z,91.17
2022-11-07T07:25:08.146Z,91.03
2022-11-07T07:27:34.683Z,90.98
2022-11-07T07:30:01.212Z,90.76
2022-11-07T07:32:27.818Z,90.70
2022-11-07T07:34:56.623Z,90.81
2022-11-07T07:37:25.570Z,90.46
2022-11-07T07:39:54.531Z,90.35
2022-11-07T07:42:25.976Z,90.08
2022-11-07T07:44:52.471Z,89.97
2022-11-07T07:47:21.568Z,90.09
2022-11-07T07:49:48.122Z,89.74
2022-11-07T07:52:14.672Z,89.93
2022-11-07T07:54:41.181Z,89.78
2022-11-07T07:57:07.860Z,89.45
2022-11-07T07:59:34.451Z,89.09
2022-11-07T08:02:01.132Z,88.72
2022-11-07T08:04:27.695Z,88.19
2022-11-07T08:06:54.197Z,88.22
2022-11-07T08:09:20.842Z,88.46
2022-11-07T08:11:47.376Z,88.88
2022-11-07T08:14:14.294Z,88.60
2022-11-07T08:16:43.120Z,88.45
2022-11-07T08:19:09.725Z,88.67
2022-11-07T08:21:36.487Z,88.89
2022-11-07T08:24:03.543Z,88.59
2022-11-07T08:26:30.497Z,88.50
2022-11-07T08:28:57.083Z,88.36
2022-11-07T08:31:23.722Z,88.05
2022-11-07T08:33:53.148Z,87.80
2022-11-07T08:36:19.842Z,87.14
2022-11-07T08:38:46.385Z,86.65
2022-11-07T08:41:12.942Z,86.12
2022-11-07T08:43:39.574Z,85.80
2022-11-07T08:46:06.193Z,85.60
2022-11-07T08:48:32.918Z,85.34
2022-11-07T08:50:59.636Z,85.33
2022-11-07T08:53:26.914Z,85.74
2022-11-07T08:56:00.074Z,85.32
2022-11-07T08:58:29.961Z,85.56
2022-11-07T09:00:57.501Z,86.01
2022-11-07T09:03:44.397Z,86.46
2022-11-07T09:06:11.004Z,86.45
2022-11-07T09:08:40.842Z,86.43
2022-11-07T09:11:07.409Z,86.45
2022-11-07T09:13:34.698Z,86.52
2022-11-07T09:16:05.714Z,86.24
2022-11-07T09:18:33.199Z,86.39
2022-11-07T09:21:01.913Z,86.35
2022-11-07T09:23:28.672Z,86.56
2022-11-07T09:25:55.247Z,86.48
2022-11-07T09:28:21.857Z,86.57
2022-11-07T09:30:53.795Z,86.39
2022-11-07T09:33:26.068Z,86.55
2022-11-07T09:35:55.333Z,86.47
2022-11-07T09:38:21.915Z,86.59
2022-11-07T09:41:26.272Z,86.90
2022-11-07T09:44:04.959Z,86.88
2022-11-07T09:46:47.128Z,86.92
2022-11-07T09:49:26.263Z,86.56
2022-11-07T09:52:04.385Z,86.81
2022-11-07T09:54:37.199Z,86.29
2022-11-07T09:57:04.226Z,86.02
2022-11-07T09:59:30.687Z,85.87
2022-11-07T10:01:57.644Z,85.17
2022-11-07T10:04:26.293Z,84.26
2022-11-07T10:07:05.181Z,83.52
2022-11-07T10:09:50.345Z,83.14
2022-11-07T10:12:22.807Z,83.04
2022-11-07T10:15:21.210Z,82.83
2022-11-07T10:17:58.784Z,82.41
2022-11-07T10:20:44.127Z,82.19
2022-11-07T10:23:55.180Z,82.46
2022-11-07T10:26:25.554Z,82.44
2022-11-07T10:29:11.766Z,82.53
2022-11-07T10:31:46.690Z,82.92
2022-11-07T10:34:34.798Z,83.25
2022-11-07T10:37:01.533Z,83.23
2022-11-07T10:39:31.001Z,83.39
2022-11-07T10:42:16.149Z,83.42
2022-11-07T10:44:43.719Z,83.29
2022-11-07T10:47:19.022Z,83.50
2022-11-07T10:50:05.271Z,83.51
2022-11-07T10:52:31.777Z,83.41
2022-11-07T10:55:09.774Z,83.39
2022-11-07T10:57:36.453Z,83.23
2022-11-07T11:00:05.736Z,83.28
2022-11-07T11:02:49.403Z,83.67
2022-11-07T11:05:42.682Z,83.21
2022-11-07T11:08:19.274Z,83.06
2022-11-07T11:10:47.222Z,82.80
2022-11-07T11:13:29.971Z,83.16
2022-11-07T11:16:05.315Z,83.04
2022-11-07T11:18:32.868Z,82.69
2022-11-07T11:21:06.717Z,82.37
2022-11-07T11:23:37.585Z,82.17
2022-11-07T11:26:17.284Z,81.76
2022-11-07T11:29:01.756Z,81.61
2022-11-07T11:31:46.109Z,81.68
2022-11-07T11:34:24.301Z,81.13
2022-11-07T11:37:01.837Z,81.01
2022-11-07T11:39:37.609Z,80.62
2022-11-07T11:42:05.236Z,80.45
2022-11-07T11:44:40.488Z,80.49
2022-11-07T11:47:29.151Z,80.60
2022-11-07T11:50:12.321Z,80.45
2022-11-07T11:52:39.538Z,80.52
2022-11-07T11:55:14.265Z,80.51
2022-11-07T11:58:10.255Z,80.36
2022-11-07T12:00:44.690Z,80.32
2022-11-07T12:03:14.421Z,79.91
2022-11-07T12:06:08.566Z,80.18
2022-11-07T12:08:56.048Z,80.14
2022-11-07T12:11:31.126Z,79.79
2022-11-07T12:14:16.467Z,79.67
2022-11-07T12:16:53.035Z,78.98
2022-11-07T12:19:34.524Z,78.58
2022-11-07T12:22:14.920Z,78.48
2022-11-07T12:25:03.508Z,78.45
2022-11-07T12:27:36.918Z,78.28
2022-11-07T12:30:42.904Z,78.26
2022-11-07T12:33:24.272Z,77.69
2022-11-07T12:36:11.029Z,77.49
2022-11-07T12:39:02.758Z,76.93
2022-11-07T12:41:29.274Z,76.59
2022-11-07T12:44:00.715Z,76.43
2022-11-07T12:46:43.212Z,76.29
2022-11-07T12:49:39.534Z,76.34
2022-11-07T12:52:31.783Z,76.54
2022-11-07T12:55:19.661Z,76.39
2022-11-07T12:57:49.922Z,76.61
2022-11-07T13:00:26.027Z,76.86
2022-11-07T13:03:32.687Z,77.19
2022-11-07T13:06:03.319Z,77.35
2022-11-07T13:08:45.122Z,77.59
2022-11-07T13:11:38.081Z,77.64
2022-11-07T13:14:34.061Z,77.60
2022-11-07T13:17:16.047Z,77.72
2022-11-07T13:19:57.656Z,77.94
2022-11-07T13:22:36.248Z,77.77
2022-11-07T13:25:16.364Z,77.96
2022-11-07T13:27:59.406Z,77.84
2022-11-07T13:30:52.206Z,78.14
2022-11-07T13:33:33.180Z,78.01
2022-11-07T13:36:25.393Z,77.88
2022-11-07T13:38:55.534Z,77.68
2022-11-07T13:41:23.708Z,77.86
2022-11-07T13:43:57.780Z,77.81
2022-11-07T13:46:39.017Z,78.10
2022-11-07T13:49:19.227Z,78.19
2022-11-07T13:51:51.099Z,78.14
2022-11-07T13:54:45.736Z,77.73
2022-11-07T13:57:47.989Z,77.48
2022-11-07T14:00:17.125Z,77.13
2022-11-07T14:02:55.110Z,77.41
2022-11-07T14:05:27.736Z,77.31
2022-11-07T14:08:00.009Z,77.21
2022-11-07T14:10:40.144Z,77.16
2022-11-07T14:13:13.877Z,77.23
2022-11-07T14:15:53.173Z,77.36
2022-11-07T14:18:23.045Z,77.28
2022-11-07T14:20:57.766Z,77.54
2022-11-07T14:23:30.180Z,77.40
2022-11-07T14:25:58.423Z,77.49
2022-11-07T14:28:36.429Z,77.79
2022-11-07T14:31:08.858Z,77.78
2022-11-07T14:33:35.432Z,78.00
2022-11-07T14:36:08.799Z,78.04
2022-11-07T14:38:35.442Z,78.40
2022-11-07T14:41:02.660Z,78.62
2022-11-07T14:43:30.962Z,78.64
2022-11-07T14:46:13.314Z,78.77
2022-11-07T14:48:44.675Z,78.95
2022-11-07T14:51:15.040Z,78.87
2022-11-07T14:54:01.376Z,79.18
2022-11-07T14:56:38.397Z,79.03
2022-11-07T14:59:08.951Z,79.20
2022-11-07T15:01:35.606Z,78.99
2022-11-07T15:04:16.286Z,79.42
2022-11-07T15:06:45.150Z,79.62
2022-11-07T15:09:15.206Z,79.69
2022-11-07T15:11:57.716Z,79.73
2022-11-07T15:14:34.310Z,79.63
2022-11-07T15:17:04.273Z,79.82
2022-11-07T15:19:34.363Z,80.18
2022-11-07T15:22:05.932Z,79.98
2022-11-07T15:24:32.512Z,80.30
2022-11-07T15:27:01.367Z,80.55
2022-11-07T15:29:33.664Z,80.69
2022-11-07T15:32:15.550Z,80.56
2022-11-07T15:35:03.777Z,80.81
2022-11-07T15:37:29.676Z,80.68
2022-11-07T15:39:56.388Z,81.14
2022-11-07T15:42:24.982Z,81.06
2022-11-07T15:44:51.486Z,81.13
2022-11-07T15:47:21.404Z,81.11
2022-11-07T15:49:48.573Z,81.38
2022-11-07T15:52:15.209Z,81.38
2022-11-07T15:54:49.196Z,81.53
2022-11-07T15:57:15.781Z,81.42
2022-11-07T15:59:43.565Z,81.61
2022-11-07T16:02:16.556Z,81.53
2022-11-07T16:04:43.877Z,81.69
2022-11-07T16:07:20.006Z,81.78
2022-11-07T16:09:48.724Z,81.63
2022-11-07T16:12:19.345Z,81.57
2022-11-07T16:14:45.921Z,81.71
2022-11-07T16:17:14.996Z,81.79
2022-11-07T16:19:44.525Z,81.60
2022-11-07T16:22:15.739Z,81.80
2022-11-07T16:24:42.380Z,81.65
2022-11-07T16:27:15.757Z,81.66
2022-11-07T16:29:44.176Z,81.51
2022-11-07T16:32:18.054Z,81.28
2022-11-07T16:34:45.162Z,81.52
2022-11-07T16:37:12.002Z,81.23
2022-11-07T16:39:38.569Z,81.65
2022-11-07T16:42:05.133Z,81.40
2022-11-07T16:44:31.822Z,81.45
2022-11-07T16:46:58.634Z,81.50
2022-11-07T16:49:33.936Z,81.35
2022-11-07T16:52:04.141Z,81.52
2022-11-07T16:54:30.779Z,81.51
2022-11-07T16:56:57.391Z,81.18
2022-11-07T16:59:24.860Z,81.23
2022-11-07T17:01:52.316Z,81.37
2022-11-07T17:04:19.069Z,81.23
2022-11-07T17:06:48.295Z,81.26
2022-11-07T17:09:16.826Z,81.25
2022-11-07T17:11:46.462Z,81.37
2022-11-07T17:14:13.515Z,81.14
2022-11-07T17:16:46.394Z,80.86
2022-11-07T17:19:13.699Z,81.13
2022-11-07T17:21:46.244Z,81.04
2022-11-07T17:24:13.723Z,81.09
2022-11-07T17:26:40.692Z,81.07
2022-11-07T17:29:12.446Z,81.11
2022-11-07T17:31:39.998Z,81.08
2022-11-07T17:34:06.599Z,81.02
2022-11-07T17:36:40.400Z,81.16
2022-11-07T17:39:12.020Z,80.93
2022-11-07T17:41:43.454Z,80.95
2022-11-07T17:44:11.032Z,80.83
2022-11-07T17:46:41.991Z,81.21
2022-11-07T17:49:11.156Z,81.40
2022-11-07T17:51:41.745Z,81.28
2022-11-07T17:54:12.539Z,81.60
2022-11-07T17:56:39.669Z,81.73
2022-11-07T17:59:10.343Z,81.88
2022-11-07T18:01:39.175Z,81.79
2022-11-07T18:04:07.356Z,81.98
2022-11-07T18:06:39.899Z,81.97
2022-11-07T18:09:08.142Z,81.86
2022-11-07T18:11:35.550Z,81.69
2022-11-07T18:14:02.913Z,81.72
2022-11-07T18:16:32.979Z,81.71
2022-11-07T18:19:00.667Z,81.50
2022-11-07T18:21:27.717Z,81.69
2022-11-07T18:23:56.650Z,82.03
2022-11-07T18:26:33.255Z,82.04
2022-11-07T18:29:09.481Z,82.31
2022-11-07T18:31:41.173Z,82.49
2022-11-07T18:34:12.386Z,82.64
2022-11-07T18:36:41.202Z,82.87
2022-11-07T18:39:12.631Z,82.87
2022-11-07T18:41:42.029Z,83.00
2022-11-07T18:44:09.480Z,83.07
2022-11-07T18:46:36.448Z,83.15
2022-11-07T18:49:03.916Z,82.73
2022-11-07T18:51:30.883Z,82.98
2022-11-07T18:54:02.008Z,82.90
2022-11-07T18:56:28.688Z,82.87
2022-11-07T18:58:58.154Z,82.61
2022-11-07T19:01:28.434Z,82.72
2022-11-07T19:03:56.765Z,82.66
2022-11-07T19:06:28.011Z,82.50
2022-11-07T19:08:54.746Z,82.48
2022-11-07T19:11:26.480Z,82.56
2022-11-07T19:13:56.569Z,82.65
2022-11-07T19:16:23.464Z,82.48
2022-11-07T19:18:51.079Z,82.27
2022-11-07T19:21:21.033Z,82.33
2022-11-07T19:23:48.644Z,82.48
2022-11-07T19:26:15.261Z,82.55
2022-11-07T19:28:41.922Z,82.61
2022-11-07T19:31:10.881Z,82.98
2022-11-07T19:33:37.661Z,82.74
2022-11-07T19:36:15.708Z,82.70
2022-11-07T19:38:42.752Z,82.67
2022-11-07T19:41:10.476Z,82.73
2022-11-07T19:43:38.127Z,83.21
2022-11-07T19:46:14.551Z,83.30
2022-11-07T19:48:41.453Z,83.35
2022-11-07T19:51:21.536Z,83.53
2022-11-07T19:53:56.543Z,83.65
2022-11-07T19:56:24.584Z,83.74
2022-11-07T19:58:51.587Z,83.74
2022-11-07T20:01:22.354Z,83.83
2022-11-07T20:03:52.640Z,83.91
2022-11-07T20:06:21.858Z,83.86
2022-11-07T20:08:49.268Z,83.92
2022-11-07T20:11:19.437Z,84.02
2022-11-07T20:13:46.471Z,83.73
2022-11-07T20:16:13.085Z,83.62
2022-11-07T20:18:40.601Z,83.64
2022-11-07T20:21:12.224Z,83.66
2022-11-07T20:23:40.141Z,83.64
2022-11-07T20:26:14.537Z,83.73
2022-11-07T20:28:41.627Z,83.54
2022-11-07T20:31:18.914Z,83.46
2022-11-07T20:33:45.618Z,83.37
2022-11-07T20:36:13.812Z,83.26
2022-11-07T20:38:41.657Z,83.15
2022-11-07T20:41:08.661Z,83.19
2022-11-07T20:43:35.330Z,82.96
2022-11-07T20:46:13.080Z,82.97
2022-11-07T20:48:39.823Z,82.96
2022-11-07T20:51:12.056Z,83.09
2022-11-07T20:53:39.934Z,82.81
2022-11-07T20:56:09.642Z,82.96
2022-11-07T20:58:38.692Z,82.71
2022-11-07T21:01:08.855Z,83.00
2022-11-07T21:03:35.546Z,82.77
2022-11-07T21:06:02.321Z,83.00
2022-11-07T21:08:36.967Z,82.93
2022-11-07T21:11:03.890Z,82.74
2022-11-07T21:13:30.512Z,82.76
2022-11-07T21:15:57.028Z,82.76
2022-11-07T21:18:24.527Z,82.60
2022-11-07T21:20:51.032Z,82.82
2022-11-07T21:23:18.222Z,82.61
2022-11-07T21:25:47.899Z,82.67
2022-11-07T21:28:19.746Z,82.62
2022-11-07T21:30:59.086Z,82.55
2022-11-07T21:33:29.342Z,82.44
2022-11-07T21:35:58.287Z,82.59
2022-11-07T21:38:25.174Z,82.44
2022-11-07T21:40:52.241Z,82.36
2022-11-07T21:43:19.601Z,82.51
2022-11-07T21:45:46.552Z,82.38
2022-11-07T21:48:13.086Z,82.47
2022-11-07T21:50:45.611Z,82.52
2022-11-07T21:53:14.871Z,82.42
2022-11-07T21:55:41.622Z,82.52
2022-11-07T21:58:08.124Z,82.60
2022-11-07T22:00:37.213Z,82.56
2022-11-07T22:03:04.837Z,82.65
2022-11-07T22:05:31.496Z,82.80
2022-11-07T22:07:58.208Z,82.71
2022-11-07T22:10:24.739Z,82.94
2022-11-07T22:12:52.472Z,82.79
2022-11-07T22:15:21.263Z,82.72
2022-11-07T22:17:56.709Z,82.58
2022-11-07T22:20:25.746Z,82.88
2022-11-07T22:22:52.355Z,83.06
2022-11-07T22:25:19.107Z,83.36
2022-11-07T22:27:45.645Z,83.24
2022-11-07T22:30:12.536Z,83.84
2022-11-07T22:32:39.043Z,83.86
2022-11-07T22:35:09.182Z,83.86
2022-11-07T22:37:38.473Z,83.95
2022-11-07T22:40:05.506Z,84.07
2022-11-07T22:42:32.046Z,83.99
2022-11-07T22:44:58.551Z,84.08
2022-11-07T22:47:25.085Z,84.31
2022-11-07T22:49:51.727Z,84.56
2022-11-07T22:52:18.227Z,84.51
2022-11-07T22:54:44.735Z,84.66
2022-11-07T22:57:15.318Z,84.69
2022-11-07T22:59:44.161Z,84.70
2022-11-07T23:02:10.804Z,84.84
2022-11-07T23:04:37.478Z,85.13
2022-11-07T23:07:04.088Z,85.30
2022-11-07T23:09:31.320Z,85.35
2022-11-07T23:12:00.541Z,85.30
2022-11-07T23:14:27.246Z,85.71
2022-11-07T23:16:57.087Z,85.77
2022-11-07T23:19:25.079Z,85.78
2022-11-07T23:21:56.411Z,85.93
2022-11-07T23:24:23.472Z,86.07
2022-11-07T23:26:51.083Z,86.10
2022-11-07T23:29:23.197Z,86.36
2022-11-07T23:31:52.768Z,86.18
2022-11-07T23:34:20.367Z,86.15
2022-11-07T23:36:50.056Z,86.24
2022-11-07T23:39:19.027Z,86.36
2022-11-07T23:41:46.102Z,86.40
2022-11-07T23:44:14.842Z,86.59
2022-11-07T23:47:00.589Z,86.80
2022-11-07T23:49:45.884Z,86.88
2022-11-07T23:52:12.467Z,87.02
2022-11-07T23:55:00.017Z,86.98
2022-11-07T23:57:26.581Z,87.05
